Weather at Syracuse Hancock International Airport

Public forecast

Using degrees Fahrenheit for public forecast. Weather courtesy of forecast.io.

Current aviation weather report (METAR) for Syracuse Hancock International Airport

Retrieved 2021/05/10 20:54 UTC (35 minutes ago):

KSYR 102054Z 30013KT 10SM BKN050 OVC075 13/01 A2995 RMK AO2 SLP139 T01330011

Aviation forecast (TAF) for Syracuse Hancock International Airport

Retrieved 2021/05/10 18:48 UTC (3 hours ago):

TAF KSYR 101720Z 1018/1118 29008G14KT P6SM SCT035 FM110500 26006G11KT P6SM FEW250 FM111400 28011G18KT P6SM SCT250